Flight Track Log - Related Links

Times and Time Zones

All times are in EDT time to prevent confusion due to time zone crossing. See the N508QS flight status page for this flight to view local times or setup timezone preferences in your user account.

Time Position Orientation Groundspeed Altitude Reporting Facility
EDT Latitude Longitude Course Direction KTS MPH feet Rate Location/Type
Mon 10:18:46 AM 29.1561 -82.2267 177° South 161 185 900  Level Jacksonville Center
Mon 10:19:22 AM 29.1250 -82.2247 177° South 176 203 3,100 3,711 Climbing Jacksonville Center
Mon 10:20:23 AM 29.0725 -82.1797 143° Southeast 272 313 6,900 3,314 Climbing Jacksonville Center
Mon 10:21:07 AM 29.0408 -82.1231 123° Southeast 279 321 8,900 1,615 Climbing Jacksonville Center
Mon 10:22:07 AM 28.9925 -82.0500 127° Southeast 307 353 9,700 1,200 Climbing Jacksonville Center
Mon 10:23:07 AM 28.9458 -81.9719 124° Southeast 319 367 11,300 2,150 Climbing Jacksonville Center
Mon 10:24:07 AM 28.8847 -81.8731 125° Southeast 353 406 14,000 3,250 Climbing Jacksonville Center
Mon 10:25:07 AM 28.8169 -81.7669 126° Southeast 392 451 17,800 3,450 Climbing Jacksonville Center
Mon 10:26:07 AM 28.7408 -81.6494 126° Southeast 412 474 20,900 2,900 Climbing Jacksonville Center
Mon 10:27:07 AM 28.6664 -81.5319 126° Southeast 433 498 23,600 2,203 Climbing Jacksonville Center
Mon 10:29:34 AM 28.4800 -81.2444 126° Southeast 477 549 28,500 2,000 Climbing Miami Center
Mon 10:30:34 AM 28.3919 -81.1183 128° Southeast 498 573 30,500 2,050 Climbing Miami Center
Mon 10:31:34 AM 28.3078 -80.9972 128° Southeast 498 573 32,600 1,250 Climbing Miami Center
Mon 10:32:34 AM 28.2236 -80.8764 128° Southeast 503 579 33,000 200 Climbing Miami Center
Mon 10:33:34 AM 28.1372 -80.7533 129° Southeast 503 579 33,000  Level Miami Center
Mon 10:34:34 AM 28.0528 -80.6375 130° Southeast 495 570 33,000 500 Level Miami Center
Mon 10:35:34 AM 27.9639 -80.5194 130° Southeast 490 564 34,000 1,000 Climbing Miami Center
Mon 10:36:34 AM 27.8833 -80.4064 129° Southeast 480 552 35,000 850 Climbing Miami Center
Mon 10:37:34 AM 27.7942 -80.2886 131° Southeast 486 559 35,700 500 Climbing Miami Center
Mon 10:38:34 AM 27.7114 -80.1758 130° Southeast 486 559 36,000 150 Climbing Miami Center
Mon 10:39:34 AM 27.6261 -80.0586 129° Southeast 486 559 36,000  Level Miami Center
Mon 10:40:34 AM 27.5411 -79.9439 130° Southeast 481 554 36,000  Level Miami Center
Mon 10:41:34 AM 27.4600 -79.8317 129° Southeast 481 554 36,000  Level Miami Center
Mon 10:42:34 AM 27.3664 -79.7053 130° Southeast 474 545 36,000  Level Miami Center
Mon 10:43:34 AM 27.2808 -79.5886 130° Southeast 480 552 36,000  Level Miami Center
Mon 10:44:34 AM 27.1933 -79.4697 130° Southeast 480 552 36,000  Level Miami Center
Mon 10:45:34 AM 27.1117 -79.3606 130° Southeast 492 566 36,000  Level Miami Center
Mon 10:46:34 AM 27.0158 -79.2303 130° Southeast 492 566 36,000 -200 Level Miami Center
Mon 10:47:34 AM 26.9319 -79.1192 130° Southeast 486 559 35,600 -700 Descending Miami Center
Mon 10:48:34 AM 26.8417 -78.9986 130° Southeast 492 566 34,600 -1,150 Descending Miami Center
Mon 10:49:34 AM 26.7556 -78.8853 130° Southeast 492 566 33,300 -1,400 Descending Miami Center
Mon 10:50:34 AM 26.6675 -78.7653 129° Southeast 492 566 31,800 -1,600 Descending Miami Center
Mon 10:51:34 AM 26.5831 -78.6594 132° Southeast 498 573 30,100 -1,850 Descending Miami Center
Mon 10:52:34 AM 26.4989 -78.5442 129° Southeast 493 567 28,100 -1,850 Descending Miami Center
Mon 10:53:34 AM 26.4164 -78.4342 130° Southeast 482 555 26,400 -1,600 Descending Miami Center
Mon 10:54:34 AM 26.3339 -78.3308 132° Southeast 461 531 24,900 -1,500 Descending Miami Center
Mon 10:55:34 AM 26.2556 -78.2233 129° Southeast 449 517 23,400 -1,500 Descending Miami Center
Mon 10:56:34 AM 26.1750 -78.1231 132° Southeast 444 511 21,900 -1,450 Descending Miami Center
Mon 10:57:34 AM 26.0986 -78.0203 130° Southeast 439 505 20,500 -1,400 Descending Miami Center
Mon 10:58:34 AM 26.0200 -77.9203 131° Southeast 428 493 19,100 -1,350 Descending Miami Center
Mon 10:59:34 AM 25.9453 -77.8269 132° Southeast 421 484 17,800 -1,350 Descending Miami Center
Mon 11:00:34 AM 25.8750 -77.7342 130° Southeast 407 468 16,400 -1,350 Descending Miami Center
Mon 11:01:34 AM 25.8044 -77.6389 129° Southeast 401 461 15,100 -1,250 Descending Miami Center
Mon 11:02:34 AM 25.7381 -77.5531 131° Southeast 387 445 13,900 -1,250 Descending Miami Center
Mon 11:03:34 AM 25.6608 -77.5228 161° South 323 372 12,600 -1,550 Descending Miami Center
Mon 11:04:34 AM 25.5772 -77.5314 185° South 285 328 10,800 -1,800 Descending Miami Center
Mon 11:05:34 AM 25.4997 -77.5425 187° South 285 328 9,000 -1,800 Descending Miami Center
Mon 11:07:00 AM 25.3453 -77.5169 180° South  Level Estimated
Mon 11:14:00 AM 25.0390 -77.4662 170° South  Level Estimated
Mon 11:15:00 AM 25.0390 -77.4662 170° South  Level Estimated
Mon 11:16:00 AM 25.0390 -77.4662 170° South  Level Estimated
Mon 11:17:00 AM 25.0390 -77.4662 170° South  Level Estimated
Mon 11:18:00 AM 25.0390 -77.4662 170° South  Level Estimated
Mon 11:19:00 AM 25.0390 -77.4662 170° South  Level Estimated
Mon 11:20:00 AM 25.0390 -77.4662 170° South  Level Estimated
Mon 11:21:00 AM 25.0390 -77.4662 170° South  Level Estimated
Mon 11:22:00 AM 25.0390 -77.4662 170° South  Level Estimated
Mon 11:23:00 AM 25.0390 -77.4662 170° South  Level Estimated
Mon 11:24:00 AM 25.0390 -77.4662 170° South  Level Estimated

Login

Don't have an account? Register now (free) for customized features, flight alerts, and more!